Startpagina
METAR-TAF:

METAR-TAF

Vliegvelden :

Vliegveld de Kooy

Den Helder, Nederland

breedte: 52-55N, lengte: 004-47E, hoogte: 0 m

Actueel weer

Dit bericht is 18 minuten geleden gemaakt, om 21:55 UTC
Wind 8 kt uit het oostnoordoosten, variërend tussen het oostnoordoosten en het oostzuidoosten
Temperatuur 23°C
Vochtigheid 65%
Druk 1013 hPa
Zicht 10 km of meer
geen wolken onder 1500 m en geen cumulonimbus

METAR: EHKD 162155Z AUTO 09008KT 060V120 9999 NCD 23/16 Q1013 BLU 07008KT CAVOK

Tijdstip: 00:13 (22:13 UTC)

Verwachting

Dit bericht is 6 uur en het 5 minuten geleden gemaakt, om 16:08 UTC
Verwachting geldig van 16 om 17 UTC tot 17 om 05 UTC
Wind 10 kt uit het noordoosten
Zicht 10 km of meer
geen wolken onder 1500 m en geen cumulonimbus
Wijzigt naar
van 17 om 00 UTC tot 17 om 02 UTC
Wind 5 kt uit het zuidzuidoosten

TAF: EHKD 161608Z 1617/1705 05010KT CAVOK BECMG 1700/1702 15005KT

Waarnemingen en weersverwachtingen van meer dan 4000 vliegvelden (METAR en TAF).

De beschikbare stations zijn de gele en rode punten op de kaart.

Ga met uw muis naar het station om de naam te zien.

Klik dan om waarnemingen en weersverwachtingen te zien.

kaart wijzigen: klik op de groene knoppen met een zwart kruis om in te zoomen, op de groene knop met een streepje om uit te zoomen of op de groene pijlen voor aangrenzende kaarten.


METAR-TAF: